If you wish to contribute or participate in the discussions about articles you are invited to join SKYbrary as a registered user

 Actions

Larestan International Airport

From SKYbrary Wiki

OISL
Airport
ICAO: OISL – IATA: LRR
Summary
Name Larestan International Airport
Region Middle East
Territory Iran IR.gif
Location Lar, Fars Province
Serving Lar
Elevation 800.1 m
2,625 ft800.1 m
Coordinates 27° 40' 10.15" N, 54° 22' 57.76" E
Runways
Designator Length Width Surface ROPS
9/27 3150 m10,334.646 ft
45 m147.638 ft
ASP /


METAR
Observation OISL 161400Z 00000KT CAVOK 28/10 Q1011
Station Lar
Date/Time 16 April 2019 14:00:00
Wind direction
Wind speed 00 kts
Lowest cloud amount clouds and visibility OK
Temperature 28°C
Dew point 10°C
Humidity 32%
QNH 1011 hPa
Weather condition n/a

Airport serving the city of Las, Iran.

Climatology

Warm Desert climate (Köppen climate classification BWh).

Maps

Terrain

Loading map...

Airport Layout

Loading map...


Accidents & Serious Incidents at or in vicinity of OISL

None on SKYbrary